sensor_id;sensor_type;location;lat;lon;timestamp;temperature;humidity
10848;DHT22;5477;48.806;9.154;2023-02-03T00:01:17;6.40;99.90
10848;DHT22;5477;48.806;9.154;2023-02-03T00:03:45;6.50;99.90
10848;DHT22;5477;48.806;9.154;2023-02-03T00:06:14;6.40;99.90
10848;DHT22;5477;48.806;9.154;2023-02-03T00:08:42;6.40;99.90
10848;DHT22;5477;48.806;9.154;2023-02-03T00:11:11;6.40;99.90
10848;DHT22;5477;48.806;9.154;2023-02-03T00:13:39;6.40;99.90
10848;DHT22;5477;48.806;9.154;2023-02-03T00:16:07;6.40;99.90
10848;DHT22;5477;48.806;9.154;2023-02-03T00:18:35;6.40;99.90
10848;DHT22;5477;48.806;9.154;2023-02-03T00:21:05;6.40;99.90
10848;DHT22;5477;48.806;9.154;2023-02-03T00:23:33;6.40;99.90
10848;DHT22;5477;48.806;9.154;2023-02-03T00:26:06;6.40;99.90
10848;DHT22;5477;48.806;9.154;2023-02-03T00:28:36;6.50;99.90
10848;DHT22;5477;48.806;9.154;2023-02-03T00:31:05;6.50;99.90
10848;DHT22;5477;48.806;9.154;2023-02-03T00:33:33;6.50;99.90
10848;DHT22;5477;48.806;9.154;2023-02-03T00:36:04;6.50;99.90
10848;DHT22;5477;48.806;9.154;2023-02-03T00:38:32;6.50;99.90
10848;DHT22;5477;48.806;9.154;2023-02-03T00:41:00;6.50;99.90
10848;DHT22;5477;48.806;9.154;2023-02-03T00:43:29;6.50;99.90
10848;DHT22;5477;48.806;9.154;2023-02-03T00:45:58;6.50;99.90
10848;DHT22;5477;48.806;9.154;2023-02-03T00:48:26;6.50;99.90
10848;DHT22;5477;48.806;9.154;2023-02-03T00:50:54;6.60;99.90
10848;DHT22;5477;48.806;9.154;2023-02-03T00:53:24;6.50;99.90
10848;DHT22;5477;48.806;9.154;2023-02-03T00:55:52;6.50;99.90
10848;DHT22;5477;48.806;9.154;2023-02-03T00:58:21;6.50;99.90
10848;DHT22;5477;48.806;9.154;2023-02-03T01:00:49;6.50;99.90
10848;DHT22;5477;48.806;9.154;2023-02-03T01:03:18;6.40;99.90
10848;DHT22;5477;48.806;9.154;2023-02-03T01:05:48;6.40;99.90
10848;DHT22;5477;48.806;9.154;2023-02-03T01:08:16;6.40;99.90
10848;DHT22;5477;48.806;9.154;2023-02-03T01:10:44;6.40;99.90
10848;DHT22;5477;48.806;9.154;2023-02-03T01:13:12;6.40;99.90
10848;DHT22;5477;48.806;9.154;2023-02-03T01:15:44;6.40;99.90
10848;DHT22;5477;48.806;9.154;2023-02-03T01:18:12;6.40;99.90
10848;DHT22;5477;48.806;9.154;2023-02-03T01:20:42;6.50;99.90
10848;DHT22;5477;48.806;9.154;2023-02-03T01:23:09;6.50;99.90
10848;DHT22;5477;48.806;9.154;2023-02-03T01:25:37;6.40;99.90
10848;DHT22;5477;48.806;9.154;2023-02-03T01:28:06;6.40;99.90
10848;DHT22;5477;48.806;9.154;2023-02-03T01:30:34;6.40;99.90
10848;DHT22;5477;48.806;9.154;2023-02-03T01:33:03;6.40;99.90
10848;DHT22;5477;48.806;9.154;2023-02-03T01:35:33;6.30;99.90
10848;DHT22;5477;48.806;9.154;2023-02-03T01:38:03;6.30;99.90
10848;DHT22;5477;48.806;9.154;2023-02-03T01:40:31;6.30;99.90
10848;DHT22;5477;48.806;9.154;2023-02-03T01:42:59;6.30;99.90
10848;DHT22;5477;48.806;9.154;2023-02-03T01:45:26;6.30;99.90
10848;DHT22;5477;48.806;9.154;2023-02-03T01:47:57;6.30;99.90
10848;DHT22;5477;48.806;9.154;2023-02-03T01:50:28;6.30;99.90
10848;DHT22;5477;48.806;9.154;2023-02-03T01:53:01;6.40;99.90
10848;DHT22;5477;48.806;9.154;2023-02-03T01:55:33;6.40;99.90
10848;DHT22;5477;48.806;9.154;2023-02-03T01:58:04;6.40;99.90
10848;DHT22;5477;48.806;9.154;2023-02-03T02:00:33;6.40;99.90
10848;DHT22;5477;48.806;9.154;2023-02-03T02:03:01;6.40;99.90
10848;DHT22;5477;48.806;9.154;2023-02-03T02:05:33;6.50;99.90
10848;DHT22;5477;48.806;9.154;2023-02-03T02:08:02;6.50;99.90
10848;DHT22;5477;48.806;9.154;2023-02-03T02:10:32;6.50;99.90
10848;DHT22;5477;48.806;9.154;2023-02-03T02:13:02;6.50;99.90
10848;DHT22;5477;48.806;9.154;2023-02-03T02:15:38;6.60;99.90
10848;DHT22;5477;48.806;9.154;2023-02-03T02:18:23;6.70;99.90
10848;DHT22;5477;48.806;9.154;2023-02-03T02:21:21;6.60;99.90
10848;DHT22;5477;48.806;9.154;2023-02-03T02:26:59;6.60;99.90
10848;DHT22;5477;48.806;9.154;2023-02-03T02:29:56;6.60;99.90
10848;DHT22;5477;48.806;9.154;2023-02-03T02:32:46;6.50;99.90
10848;DHT22;5477;48.806;9.154;2023-02-03T02:35:26;6.50;99.90
10848;DHT22;5477;48.806;9.154;2023-02-03T02:38:02;6.60;99.90
10848;DHT22;5477;48.806;9.154;2023-02-03T02:40:36;6.60;99.90
10848;DHT22;5477;48.806;9.154;2023-02-03T02:43:11;6.60;99.90
10848;DHT22;5477;48.806;9.154;2023-02-03T02:45:45;6.60;99.90
10848;DHT22;5477;48.806;9.154;2023-02-03T02:48:20;6.50;99.90
10848;DHT22;5477;48.806;9.154;2023-02-03T02:50:52;6.50;99.90
10848;DHT22;5477;48.806;9.154;2023-02-03T02:53:24;6.50;99.90
10848;DHT22;5477;48.806;9.154;2023-02-03T02:55:55;6.60;99.90
10848;DHT22;5477;48.806;9.154;2023-02-03T02:58:25;6.60;99.90
10848;DHT22;5477;48.806;9.154;2023-02-03T03:00:54;6.60;99.90
10848;DHT22;5477;48.806;9.154;2023-02-03T03:03:24;6.70;99.90
10848;DHT22;5477;48.806;9.154;2023-02-03T03:05:55;6.70;99.90
10848;DHT22;5477;48.806;9.154;2023-02-03T03:08:32;6.60;99.90
10848;DHT22;5477;48.806;9.154;2023-02-03T03:11:02;6.60;99.90
10848;DHT22;5477;48.806;9.154;2023-02-03T03:13:34;6.60;99.90
10848;DHT22;5477;48.806;9.154;2023-02-03T03:16:06;6.60;99.90
10848;DHT22;5477;48.806;9.154;2023-02-03T03:18:40;6.60;99.90
10848;DHT22;5477;48.806;9.154;2023-02-03T03:21:13;6.60;99.90
10848;DHT22;5477;48.806;9.154;2023-02-03T03:23:44;6.60;99.90
10848;DHT22;5477;48.806;9.154;2023-02-03T03:26:18;6.60;99.90
10848;DHT22;5477;48.806;9.154;2023-02-03T03:28:49;6.60;99.90
10848;DHT22;5477;48.806;9.154;2023-02-03T03:31:19;6.50;99.90
10848;DHT22;5477;48.806;9.154;2023-02-03T03:33:48;6.60;99.90
10848;DHT22;5477;48.806;9.154;2023-02-03T03:36:21;6.50;99.90
10848;DHT22;5477;48.806;9.154;2023-02-03T03:38:54;6.50;99.90
10848;DHT22;5477;48.806;9.154;2023-02-03T03:41:28;6.60;99.90
10848;DHT22;5477;48.806;9.154;2023-02-03T03:44:01;6.60;99.90
10848;DHT22;5477;48.806;9.154;2023-02-03T03:46:33;6.60;99.90
10848;DHT22;5477;48.806;9.154;2023-02-03T03:49:04;6.50;99.90
10848;DHT22;5477;48.806;9.154;2023-02-03T03:51:40;6.60;99.90
10848;DHT22;5477;48.806;9.154;2023-02-03T03:54:13;6.60;99.90
10848;DHT22;5477;48.806;9.154;2023-02-03T03:56:47;6.60;99.90
10848;DHT22;5477;48.806;9.154;2023-02-03T03:59:19;6.60;99.90
10848;DHT22;5477;48.806;9.154;2023-02-03T04:01:50;6.60;99.90
10848;DHT22;5477;48.806;9.154;2023-02-03T04:04:20;6.60;99.90
10848;DHT22;5477;48.806;9.154;2023-02-03T04:06:52;6.60;99.90
10848;DHT22;5477;48.806;9.154;2023-02-03T04:09:20;6.60;99.90
10848;DHT22;5477;48.806;9.154;2023-02-03T04:11:48;6.60;99.90
10848;DHT22;5477;48.806;9.154;2023-02-03T04:14:29;6.60;99.90
10848;DHT22;5477;48.806;9.154;2023-02-03T04:16:57;6.60;99.90
10848;DHT22;5477;48.806;9.154;2023-02-03T04:19:26;6.60;99.90
10848;DHT22;5477;48.806;9.154;2023-02-03T04:21:54;6.50;99.90
10848;DHT22;5477;48.806;9.154;2023-02-03T04:24:22;6.50;99.90
10848;DHT22;5477;48.806;9.154;2023-02-03T04:26:50;6.50;99.90
10848;DHT22;5477;48.806;9.154;2023-02-03T04:29:18;6.40;99.90
10848;DHT22;5477;48.806;9.154;2023-02-03T04:31:46;6.40;99.90
10848;DHT22;5477;48.806;9.154;2023-02-03T04:34:15;6.40;99.90
10848;DHT22;5477;48.806;9.154;2023-02-03T04:36:44;6.40;99.90
10848;DHT22;5477;48.806;9.154;2023-02-03T04:39:12;6.30;99.90
10848;DHT22;5477;48.806;9.154;2023-02-03T04:41:40;6.20;99.90
10848;DHT22;5477;48.806;9.154;2023-02-03T04:44:08;6.20;99.90
10848;DHT22;5477;48.806;9.154;2023-02-03T04:46:55;6.20;99.90
10848;DHT22;5477;48.806;9.154;2023-02-03T04:49:27;6.10;99.90
10848;DHT22;5477;48.806;9.154;2023-02-03T04:51:56;6.10;99.90
10848;DHT22;5477;48.806;9.154;2023-02-03T04:54:24;6.10;99.90
10848;DHT22;5477;48.806;9.154;2023-02-03T04:56:52;6.10;99.90
10848;DHT22;5477;48.806;9.154;2023-02-03T04:59:20;6.10;99.90
10848;DHT22;5477;48.806;9.154;2023-02-03T05:01:48;6.10;99.90
10848;DHT22;5477;48.806;9.154;2023-02-03T05:04:16;6.00;99.90
10848;DHT22;5477;48.806;9.154;2023-02-03T05:06:43;6.00;99.90
10848;DHT22;5477;48.806;9.154;2023-02-03T05:09:13;6.00;99.90
10848;DHT22;5477;48.806;9.154;2023-02-03T05:11:41;6.00;99.90
10848;DHT22;5477;48.806;9.154;2023-02-03T05:14:09;5.90;99.90
10848;DHT22;5477;48.806;9.154;2023-02-03T05:16:37;5.90;99.90
10848;DHT22;5477;48.806;9.154;2023-02-03T05:19:05;6.00;99.90
10848;DHT22;5477;48.806;9.154;2023-02-03T05:21:33;6.00;99.90
10848;DHT22;5477;48.806;9.154;2023-02-03T05:24:01;6.10;99.90
10848;DHT22;5477;48.806;9.154;2023-02-03T05:26:34;6.10;99.90
10848;DHT22;5477;48.806;9.154;2023-02-03T05:29:03;6.10;99.90
10848;DHT22;5477;48.806;9.154;2023-02-03T05:31:30;6.00;99.90
10848;DHT22;5477;48.806;9.154;2023-02-03T05:33:59;6.00;99.90
10848;DHT22;5477;48.806;9.154;2023-02-03T05:36:27;6.00;99.90
10848;DHT22;5477;48.806;9.154;2023-02-03T05:38:55;6.00;99.90
10848;DHT22;5477;48.806;9.154;2023-02-03T05:41:23;6.10;99.90
10848;DHT22;5477;48.806;9.154;2023-02-03T05:44:09;6.00;99.90
10848;DHT22;5477;48.806;9.154;2023-02-03T05:46:37;6.00;99.90
10848;DHT22;5477;48.806;9.154;2023-02-03T05:49:05;6.00;99.90
10848;DHT22;5477;48.806;9.154;2023-02-03T05:51:33;6.10;99.90
10848;DHT22;5477;48.806;9.154;2023-02-03T05:54:01;6.10;99.90
10848;DHT22;5477;48.806;9.154;2023-02-03T05:56:29;6.10;99.90
10848;DHT22;5477;48.806;9.154;2023-02-03T05:58:57;6.20;99.90
10848;DHT22;5477;48.806;9.154;2023-02-03T06:01:26;6.10;99.90
10848;DHT22;5477;48.806;9.154;2023-02-03T06:03:54;6.20;99.90
10848;DHT22;5477;48.806;9.154;2023-02-03T06:06:22;6.10;99.90
10848;DHT22;5477;48.806;9.154;2023-02-03T06:08:50;6.10;99.90
10848;DHT22;5477;48.806;9.154;2023-02-03T06:11:22;6.10;99.90
10848;DHT22;5477;48.806;9.154;2023-02-03T06:13:50;6.10;99.90
10848;DHT22;5477;48.806;9.154;2023-02-03T06:16:18;6.10;99.90
10848;DHT22;5477;48.806;9.154;2023-02-03T06:18:48;6.10;99.90
10848;DHT22;5477;48.806;9.154;2023-02-03T06:21:16;6.10;99.90
10848;DHT22;5477;48.806;9.154;2023-02-03T06:23:43;6.00;99.90
10848;DHT22;5477;48.806;9.154;2023-02-03T06:26:12;6.00;99.90
10848;DHT22;5477;48.806;9.154;2023-02-03T06:28:40;6.00;99.90
10848;DHT22;5477;48.806;9.154;2023-02-03T06:31:08;6.10;99.90
10848;DHT22;5477;48.806;9.154;2023-02-03T06:33:36;6.10;99.90
10848;DHT22;5477;48.806;9.154;2023-02-03T06:36:06;6.10;99.90
10848;DHT22;5477;48.806;9.154;2023-02-03T06:38:34;6.10;99.90
10848;DHT22;5477;48.806;9.154;2023-02-03T06:41:02;6.10;99.90
10848;DHT22;5477;48.806;9.154;2023-02-03T06:43:30;6.10;99.90
10848;DHT22;5477;48.806;9.154;2023-02-03T06:45:57;6.10;99.90
10848;DHT22;5477;48.806;9.154;2023-02-03T06:48:26;6.00;99.90
10848;DHT22;5477;48.806;9.154;2023-02-03T06:50:54;6.00;99.90
10848;DHT22;5477;48.806;9.154;2023-02-03T06:53:23;6.10;99.90
10848;DHT22;5477;48.806;9.154;2023-02-03T06:55:51;6.00;99.90
10848;DHT22;5477;48.806;9.154;2023-02-03T06:58:19;6.00;99.90
10848;DHT22;5477;48.806;9.154;2023-02-03T07:00:47;5.90;99.90
10848;DHT22;5477;48.806;9.154;2023-02-03T07:03:15;5.90;99.90
10848;DHT22;5477;48.806;9.154;2023-02-03T07:05:43;5.90;99.90
10848;DHT22;5477;48.806;9.154;2023-02-03T07:08:11;5.90;99.90
10848;DHT22;5477;48.806;9.154;2023-02-03T07:10:40;5.90;99.90
10848;DHT22;5477;48.806;9.154;2023-02-03T07:13:08;5.80;99.90
10848;DHT22;5477;48.806;9.154;2023-02-03T07:15:36;5.80;99.90
10848;DHT22;5477;48.806;9.154;2023-02-03T07:18:05;5.80;99.90
10848;DHT22;5477;48.806;9.154;2023-02-03T07:20:32;5.80;99.90
10848;DHT22;5477;48.806;9.154;2023-02-03T07:23:00;5.80;99.90
10848;DHT22;5477;48.806;9.154;2023-02-03T07:25:30;5.80;99.90
10848;DHT22;5477;48.806;9.154;2023-02-03T07:28:00;5.80;99.90
10848;DHT22;5477;48.806;9.154;2023-02-03T07:30:28;5.80;99.90
10848;DHT22;5477;48.806;9.154;2023-02-03T07:32:56;5.80;99.90
10848;DHT22;5477;48.806;9.154;2023-02-03T07:35:24;5.80;99.90
10848;DHT22;5477;48.806;9.154;2023-02-03T07:37:52;5.90;99.90
10848;DHT22;5477;48.806;9.154;2023-02-03T07:40:20;5.90;99.90
10848;DHT22;5477;48.806;9.154;2023-02-03T07:42:48;5.90;99.90
10848;DHT22;5477;48.806;9.154;2023-02-03T07:45:18;5.90;99.90
10848;DHT22;5477;48.806;9.154;2023-02-03T07:47:47;5.90;99.90
10848;DHT22;5477;48.806;9.154;2023-02-03T07:50:15;5.90;99.90
10848;DHT22;5477;48.806;9.154;2023-02-03T07:52:44;5.90;99.90
10848;DHT22;5477;48.806;9.154;2023-02-03T07:55:12;5.90;99.90
10848;DHT22;5477;48.806;9.154;2023-02-03T07:57:39;5.90;99.90
10848;DHT22;5477;48.806;9.154;2023-02-03T08:00:11;5.90;99.90
10848;DHT22;5477;48.806;9.154;2023-02-03T08:02:41;5.90;99.90
10848;DHT22;5477;48.806;9.154;2023-02-03T08:05:10;6.00;99.90
10848;DHT22;5477;48.806;9.154;2023-02-03T08:07:38;6.00;99.90
10848;DHT22;5477;48.806;9.154;2023-02-03T08:10:07;6.00;99.90
10848;DHT22;5477;48.806;9.154;2023-02-03T08:12:36;6.10;99.90
10848;DHT22;5477;48.806;9.154;2023-02-03T08:15:05;6.10;99.90
10848;DHT22;5477;48.806;9.154;2023-02-03T08:17:33;6.10;99.90
10848;DHT22;5477;48.806;9.154;2023-02-03T08:20:03;6.10;99.90
10848;DHT22;5477;48.806;9.154;2023-02-03T08:22:31;6.10;99.90
10848;DHT22;5477;48.806;9.154;2023-02-03T08:24:59;6.10;99.90
10848;DHT22;5477;48.806;9.154;2023-02-03T08:27:26;6.20;99.90
10848;DHT22;5477;48.806;9.154;2023-02-03T08:29:54;6.20;99.90
10848;DHT22;5477;48.806;9.154;2023-02-03T08:32:22;6.20;99.90
10848;DHT22;5477;48.806;9.154;2023-02-03T08:34:51;6.20;99.90
10848;DHT22;5477;48.806;9.154;2023-02-03T08:37:21;6.20;99.90
10848;DHT22;5477;48.806;9.154;2023-02-03T08:39:51;6.20;99.90
10848;DHT22;5477;48.806;9.154;2023-02-03T08:42:19;6.20;99.90
10848;DHT22;5477;48.806;9.154;2023-02-03T08:44:47;6.20;99.90
10848;DHT22;5477;48.806;9.154;2023-02-03T08:47:16;6.20;99.90
10848;DHT22;5477;48.806;9.154;2023-02-03T08:49:44;6.20;99.90
10848;DHT22;5477;48.806;9.154;2023-02-03T08:52:13;6.20;99.90
10848;DHT22;5477;48.806;9.154;2023-02-03T08:54:46;6.30;99.90
10848;DHT22;5477;48.806;9.154;2023-02-03T08:57:14;6.40;99.90
10848;DHT22;5477;48.806;9.154;2023-02-03T08:59:42;6.40;99.90
10848;DHT22;5477;48.806;9.154;2023-02-03T09:02:14;6.40;99.90
10848;DHT22;5477;48.806;9.154;2023-02-03T09:04:43;6.40;99.90
10848;DHT22;5477;48.806;9.154;2023-02-03T09:07:11;6.40;99.90
10848;DHT22;5477;48.806;9.154;2023-02-03T09:09:39;6.50;99.90
10848;DHT22;5477;48.806;9.154;2023-02-03T09:12:09;6.50;99.90
10848;DHT22;5477;48.806;9.154;2023-02-03T09:14:38;6.60;99.90
10848;DHT22;5477;48.806;9.154;2023-02-03T09:17:06;6.60;99.90
10848;DHT22;5477;48.806;9.154;2023-02-03T09:19:35;6.70;99.90
10848;DHT22;5477;48.806;9.154;2023-02-03T09:22:03;6.70;99.90
10848;DHT22;5477;48.806;9.154;2023-02-03T09:24:32;6.80;99.90
10848;DHT22;5477;48.806;9.154;2023-02-03T09:26:59;6.90;99.90
10848;DHT22;5477;48.806;9.154;2023-02-03T09:29:29;7.00;99.90
10848;DHT22;5477;48.806;9.154;2023-02-03T09:31:57;7.20;99.90
10848;DHT22;5477;48.806;9.154;2023-02-03T09:34:25;7.40;99.90
10848;DHT22;5477;48.806;9.154;2023-02-03T09:36:53;7.50;99.90
10848;DHT22;5477;48.806;9.154;2023-02-03T09:39:21;7.60;99.90
10848;DHT22;5477;48.806;9.154;2023-02-03T09:41:59;7.60;99.90
10848;DHT22;5477;48.806;9.154;2023-02-03T09:44:35;7.70;99.90
10848;DHT22;5477;48.806;9.154;2023-02-03T09:47:11;7.70;99.90
10848;DHT22;5477;48.806;9.154;2023-02-03T09:49:43;7.70;99.90
10848;DHT22;5477;48.806;9.154;2023-02-03T09:52:16;7.70;99.90
10848;DHT22;5477;48.806;9.154;2023-02-03T09:54:50;7.80;99.90
10848;DHT22;5477;48.806;9.154;2023-02-03T09:57:21;7.80;99.90
10848;DHT22;5477;48.806;9.154;2023-02-03T09:59:52;7.80;99.90
10848;DHT22;5477;48.806;9.154;2023-02-03T10:02:33;7.80;99.90
10848;DHT22;5477;48.806;9.154;2023-02-03T10:05:13;7.80;99.90
10848;DHT22;5477;48.806;9.154;2023-02-03T10:07:49;7.80;99.90
10848;DHT22;5477;48.806;9.154;2023-02-03T10:10:24;7.90;99.90
10848;DHT22;5477;48.806;9.154;2023-02-03T10:13:09;8.10;99.90
10848;DHT22;5477;48.806;9.154;2023-02-03T10:16:01;8.30;99.90
10848;DHT22;5477;48.806;9.154;2023-02-03T10:18:33;8.50;99.90
10848;DHT22;5477;48.806;9.154;2023-02-03T10:21:09;8.50;99.90
10848;DHT22;5477;48.806;9.154;2023-02-03T10:23:39;8.50;99.90
10848;DHT22;5477;48.806;9.154;2023-02-03T10:26:14;8.30;99.90
10848;DHT22;5477;48.806;9.154;2023-02-03T10:28:51;8.30;99.90
10848;DHT22;5477;48.806;9.154;2023-02-03T10:31:23;8.30;99.90
10848;DHT22;5477;48.806;9.154;2023-02-03T10:33:59;8.20;99.90
10848;DHT22;5477;48.806;9.154;2023-02-03T10:36:35;8.20;99.90
10848;DHT22;5477;48.806;9.154;2023-02-03T10:39:15;8.20;99.90
10848;DHT22;5477;48.806;9.154;2023-02-03T10:41:45;8.30;99.90
10848;DHT22;5477;48.806;9.154;2023-02-03T10:44:14;8.20;99.90
10848;DHT22;5477;48.806;9.154;2023-02-03T10:46:44;8.20;99.90
10848;DHT22;5477;48.806;9.154;2023-02-03T10:49:12;8.20;99.90
10848;DHT22;5477;48.806;9.154;2023-02-03T10:51:45;8.30;99.90
10848;DHT22;5477;48.806;9.154;2023-02-03T10:54:29;8.40;99.90
10848;DHT22;5477;48.806;9.154;2023-02-03T10:57:02;8.60;99.90
10848;DHT22;5477;48.806;9.154;2023-02-03T10:59:33;8.80;99.90
10848;DHT22;5477;48.806;9.154;2023-02-03T11:02:09;9.30;99.90
10848;DHT22;5477;48.806;9.154;2023-02-03T11:04:47;9.50;99.90
10848;DHT22;5477;48.806;9.154;2023-02-03T11:07:24;9.30;99.90
10848;DHT22;5477;48.806;9.154;2023-02-03T11:09:52;8.90;99.90
10848;DHT22;5477;48.806;9.154;2023-02-03T11:12:21;8.90;99.90
10848;DHT22;5477;48.806;9.154;2023-02-03T11:14:51;8.80;99.90
10848;DHT22;5477;48.806;9.154;2023-02-03T11:17:23;8.70;99.90
10848;DHT22;5477;48.806;9.154;2023-02-03T11:19:54;8.60;99.90
10848;DHT22;5477;48.806;9.154;2023-02-03T11:22:27;8.50;99.90
10848;DHT22;5477;48.806;9.154;2023-02-03T11:24:57;8.50;99.90
10848;DHT22;5477;48.806;9.154;2023-02-03T11:27:29;8.40;99.90
10848;DHT22;5477;48.806;9.154;2023-02-03T11:30:09;8.40;99.90
10848;DHT22;5477;48.806;9.154;2023-02-03T11:32:40;8.50;99.90
10848;DHT22;5477;48.806;9.154;2023-02-03T11:35:15;8.60;99.90
10848;DHT22;5477;48.806;9.154;2023-02-03T11:37:45;8.60;99.90
10848;DHT22;5477;48.806;9.154;2023-02-03T11:40:23;8.80;99.90
10848;DHT22;5477;48.806;9.154;2023-02-03T11:43:01;9.00;99.90
10848;DHT22;5477;48.806;9.154;2023-02-03T11:45:34;9.10;99.90
10848;DHT22;5477;48.806;9.154;2023-02-03T11:48:19;9.20;99.90
10848;DHT22;5477;48.806;9.154;2023-02-03T11:50:55;9.00;99.90
10848;DHT22;5477;48.806;9.154;2023-02-03T11:53:29;8.90;99.90
10848;DHT22;5477;48.806;9.154;2023-02-03T11:56:14;8.80;99.90
10848;DHT22;5477;48.806;9.154;2023-02-03T11:59:10;8.70;99.90
10848;DHT22;5477;48.806;9.154;2023-02-03T12:05:11;8.80;99.90
10848;DHT22;5477;48.806;9.154;2023-02-03T12:07:57;8.80;99.90
10848;DHT22;5477;48.806;9.154;2023-02-03T12:10:38;8.80;99.90
10848;DHT22;5477;48.806;9.154;2023-02-03T12:13:18;8.70;99.90
10848;DHT22;5477;48.806;9.154;2023-02-03T12:16:08;8.80;99.90
10848;DHT22;5477;48.806;9.154;2023-02-03T12:18:50;8.70;99.90
10848;DHT22;5477;48.806;9.154;2023-02-03T12:21:36;8.60;99.90
10848;DHT22;5477;48.806;9.154;2023-02-03T12:24:16;8.60;99.90
10848;DHT22;5477;48.806;9.154;2023-02-03T12:26:52;8.60;99.90
10848;DHT22;5477;48.806;9.154;2023-02-03T12:29:25;8.60;99.90
10848;DHT22;5477;48.806;9.154;2023-02-03T12:32:04;8.60;99.90
10848;DHT22;5477;48.806;9.154;2023-02-03T12:34:36;8.60;99.90
10848;DHT22;5477;48.806;9.154;2023-02-03T12:37:11;8.50;99.90
10848;DHT22;5477;48.806;9.154;2023-02-03T12:39:45;8.50;99.90
10848;DHT22;5477;48.806;9.154;2023-02-03T12:42:17;8.50;99.90
10848;DHT22;5477;48.806;9.154;2023-02-03T12:44:51;8.50;99.90
10848;DHT22;5477;48.806;9.154;2023-02-03T12:47:25;8.50;99.90
10848;DHT22;5477;48.806;9.154;2023-02-03T12:49:56;8.40;99.90
10848;DHT22;5477;48.806;9.154;2023-02-03T12:52:31;8.40;99.90
10848;DHT22;5477;48.806;9.154;2023-02-03T12:55:07;8.40;99.90
10848;DHT22;5477;48.806;9.154;2023-02-03T12:57:47;8.40;99.90
10848;DHT22;5477;48.806;9.154;2023-02-03T13:00:29;8.40;99.90
10848;DHT22;5477;48.806;9.154;2023-02-03T13:03:08;8.40;99.90
10848;DHT22;5477;48.806;9.154;2023-02-03T13:05:41;8.40;99.90
10848;DHT22;5477;48.806;9.154;2023-02-03T13:08:19;8.30;99.90
10848;DHT22;5477;48.806;9.154;2023-02-03T13:10:50;8.40;99.90
10848;DHT22;5477;48.806;9.154;2023-02-03T13:13:25;8.40;99.90
10848;DHT22;5477;48.806;9.154;2023-02-03T13:15:56;8.40;99.90
10848;DHT22;5477;48.806;9.154;2023-02-03T13:18:28;8.40;99.90
10848;DHT22;5477;48.806;9.154;2023-02-03T13:20:58;8.40;99.90
10848;DHT22;5477;48.806;9.154;2023-02-03T13:23:27;8.50;99.90
10848;DHT22;5477;48.806;9.154;2023-02-03T13:26:22;8.50;99.90
10848;DHT22;5477;48.806;9.154;2023-02-03T13:29:08;8.50;99.90
10848;DHT22;5477;48.806;9.154;2023-02-03T13:31:47;8.40;99.90
10848;DHT22;5477;48.806;9.154;2023-02-03T13:34:37;8.40;99.90
10848;DHT22;5477;48.806;9.154;2023-02-03T13:37:34;8.40;99.90
10848;DHT22;5477;48.806;9.154;2023-02-03T13:40:19;8.40;99.90
10848;DHT22;5477;48.806;9.154;2023-02-03T13:42:53;8.40;99.90
10848;DHT22;5477;48.806;9.154;2023-02-03T13:45:25;8.40;99.90
10848;DHT22;5477;48.806;9.154;2023-02-03T13:47:56;8.50;99.90
10848;DHT22;5477;48.806;9.154;2023-02-03T13:50:28;8.40;99.90
10848;DHT22;5477;48.806;9.154;2023-02-03T13:52:59;8.40;99.90
10848;DHT22;5477;48.806;9.154;2023-02-03T13:55:41;8.50;99.90
10848;DHT22;5477;48.806;9.154;2023-02-03T13:58:19;8.50;99.90
10848;DHT22;5477;48.806;9.154;2023-02-03T14:01:25;8.40;99.90
10848;DHT22;5477;48.806;9.154;2023-02-03T14:03:55;8.40;99.90
10848;DHT22;5477;48.806;9.154;2023-02-03T14:06:58;8.40;99.90
10848;DHT22;5477;48.806;9.154;2023-02-03T14:09:40;8.30;99.90
10848;DHT22;5477;48.806;9.154;2023-02-03T14:12:21;8.40;99.90
10848;DHT22;5477;48.806;9.154;2023-02-03T14:15:12;8.30;99.90
10848;DHT22;5477;48.806;9.154;2023-02-03T14:18:02;8.30;99.90
10848;DHT22;5477;48.806;9.154;2023-02-03T14:20:47;8.30;99.90
10848;DHT22;5477;48.806;9.154;2023-02-03T14:23:24;8.30;99.90
10848;DHT22;5477;48.806;9.154;2023-02-03T14:25:55;8.40;99.90
10848;DHT22;5477;48.806;9.154;2023-02-03T14:28:30;8.30;99.90
10848;DHT22;5477;48.806;9.154;2023-02-03T14:31:06;8.30;99.90
10848;DHT22;5477;48.806;9.154;2023-02-03T14:34:01;8.30;99.90
10848;DHT22;5477;48.806;9.154;2023-02-03T14:36:38;8.40;99.90
10848;DHT22;5477;48.806;9.154;2023-02-03T14:46:05;8.50;99.90
10848;DHT22;5477;48.806;9.154;2023-02-03T14:48:51;8.40;99.90
10848;DHT22;5477;48.806;9.154;2023-02-03T14:51:34;8.40;99.90
10848;DHT22;5477;48.806;9.154;2023-02-03T14:54:19;8.40;99.90
10848;DHT22;5477;48.806;9.154;2023-02-03T14:57:04;8.30;99.90
10848;DHT22;5477;48.806;9.154;2023-02-03T14:59:45;8.30;99.90
10848;DHT22;5477;48.806;9.154;2023-02-03T15:02:20;8.20;99.90
10848;DHT22;5477;48.806;9.154;2023-02-03T15:04:49;8.20;99.90
10848;DHT22;5477;48.806;9.154;2023-02-03T15:07:37;8.20;99.90
10848;DHT22;5477;48.806;9.154;2023-02-03T15:10:16;8.20;99.90
10848;DHT22;5477;48.806;9.154;2023-02-03T15:12:46;8.20;99.90
10848;DHT22;5477;48.806;9.154;2023-02-03T15:15:19;8.20;99.90
10848;DHT22;5477;48.806;9.154;2023-02-03T15:17:51;8.20;99.90
10848;DHT22;5477;48.806;9.154;2023-02-03T15:20:34;8.20;99.90
10848;DHT22;5477;48.806;9.154;2023-02-03T15:23:17;8.20;99.90
10848;DHT22;5477;48.806;9.154;2023-02-03T15:25:47;8.20;99.90
10848;DHT22;5477;48.806;9.154;2023-02-03T15:28:20;8.20;99.90
10848;DHT22;5477;48.806;9.154;2023-02-03T15:30:52;8.20;99.90
10848;DHT22;5477;48.806;9.154;2023-02-03T15:33:24;8.20;99.90
10848;DHT22;5477;48.806;9.154;2023-02-03T15:35:55;8.20;99.90
10848;DHT22;5477;48.806;9.154;2023-02-03T15:38:28;8.20;99.90
10848;DHT22;5477;48.806;9.154;2023-02-03T15:40:56;8.20;99.90
10848;DHT22;5477;48.806;9.154;2023-02-03T15:43:29;8.10;99.90
10848;DHT22;5477;48.806;9.154;2023-02-03T15:46:03;8.10;99.90
10848;DHT22;5477;48.806;9.154;2023-02-03T15:48:37;8.10;99.90
10848;DHT22;5477;48.806;9.154;2023-02-03T15:51:11;8.10;99.90
10848;DHT22;5477;48.806;9.154;2023-02-03T15:53:46;8.10;99.90
10848;DHT22;5477;48.806;9.154;2023-02-03T15:56:21;8.10;99.90
10848;DHT22;5477;48.806;9.154;2023-02-03T15:58:52;8.10;99.90
10848;DHT22;5477;48.806;9.154;2023-02-03T16:01:22;8.10;99.90
10848;DHT22;5477;48.806;9.154;2023-02-03T16:03:55;8.10;99.90
10848;DHT22;5477;48.806;9.154;2023-02-03T16:06:27;8.10;99.90
10848;DHT22;5477;48.806;9.154;2023-02-03T16:08:57;8.10;99.90
10848;DHT22;5477;48.806;9.154;2023-02-03T16:11:32;8.10;99.90
10848;DHT22;5477;48.806;9.154;2023-02-03T16:14:02;8.10;99.90
10848;DHT22;5477;48.806;9.154;2023-02-03T16:16:34;8.00;99.90
10848;DHT22;5477;48.806;9.154;2023-02-03T16:19:10;8.00;99.90
10848;DHT22;5477;48.806;9.154;2023-02-03T16:21:51;7.90;99.90
10848;DHT22;5477;48.806;9.154;2023-02-03T16:24:36;7.80;99.90
10848;DHT22;5477;48.806;9.154;2023-02-03T16:27:20;7.80;99.90
10848;DHT22;5477;48.806;9.154;2023-02-03T16:29:48;7.70;99.90
10848;DHT22;5477;48.806;9.154;2023-02-03T16:32:33;7.70;99.90
10848;DHT22;5477;48.806;9.154;2023-02-03T16:35:20;7.60;99.90
10848;DHT22;5477;48.806;9.154;2023-02-03T16:38:12;7.60;99.90
10848;DHT22;5477;48.806;9.154;2023-02-03T16:40:59;7.50;99.90
10848;DHT22;5477;48.806;9.154;2023-02-03T16:43:44;7.50;99.90
10848;DHT22;5477;48.806;9.154;2023-02-03T16:46:30;7.50;99.90
10848;DHT22;5477;48.806;9.154;2023-02-03T16:49:16;7.50;99.90
10848;DHT22;5477;48.806;9.154;2023-02-03T16:52:03;7.50;99.90